Flin Flon Airport
CYFO : now visible

Airfield :











YOU CAN JOIN US ON...

 
LOGIN :

Register | Disclaimer

   EN    FR    IT 

 









Legend :    VFR   Marginal VFR   IFR   Intensive IFR   Very Intensive IFR
Visi :
Ceiling :
>= 8 km
>= 3000ft
5 to 8 km
1000 to 3000 ft
1500m to 5 km
500 to 1000 ft
800 to 1500m
200 to 500 ft
< 800m
< 200 ft
Symbols :   Thunderstorms  Fog  Heavy snow  Heavy precipitations  Wind > 20 kt






- Airport Elevation : 997 ft
- IATA code : YFO


CYFO - Flin Flon

CURRENT METAR :
  • 231800Z 05006KT 010V100 15SM FEW020 SCT100 OVC200 08/M02 A3002 RMK CF1AC4CI4 CF TR SLP180

EXPIRED METARs :
  • 231700Z 07006KT 040V110 15SM FEW035 SCT100 OVC210 07/M02 A3003 RMK SC1AC3CI5 SLP183
  • 231600Z 03003KT 310V080 15SM FEW025 FEW150 OVC200 06/M02 A3002 RMK SC1AC1CI6 SLP180
  • 231500Z 06006KT 15SM FEW025 BKN130 OVC200 05/M01 A3002 RMK CU1AC4CI3 SLP180
  • 231400Z 05005KT 360V090 15SM FEW020 BKN140 BKN250 05/M01 A3000 RMK CU1AC5CI2 CU TR SLP176

TAF N/A
CZWG FIR / North America



MET'MAP, your aeronautical weather chart ! - Copyright ORBIFLY December 2007 - Disclaimer

ORBIFLY MET'MAP TEAM :

Programming & Development : Alexandra Zaïnal
Original concept : Baudouin d'Aumeries
Technical & hardware support : Manuel Goepfert
Assistance : Marc-Olivier Méhu




SOURCES & CREDITS :

   NOAA       Earth
Advisory